sensor_id;sensor_type;location;lat;lon;timestamp;temperature;humidity
13898;DHT22;7019;50.766;4.474;2023-02-28T00:00:47;-0.10;99.90
13898;DHT22;7019;50.766;4.474;2023-02-28T00:03:14;-0.10;99.90
13898;DHT22;7019;50.766;4.474;2023-02-28T00:05:41;-0.20;99.90
13898;DHT22;7019;50.766;4.474;2023-02-28T00:08:09;-0.20;99.90
13898;DHT22;7019;50.766;4.474;2023-02-28T00:10:36;-0.20;99.90
13898;DHT22;7019;50.766;4.474;2023-02-28T00:13:05;-0.30;99.90
13898;DHT22;7019;50.766;4.474;2023-02-28T00:15:33;-0.30;99.90
13898;DHT22;7019;50.766;4.474;2023-02-28T00:18:00;-0.10;99.90
13898;DHT22;7019;50.766;4.474;2023-02-28T00:20:28;-0.20;99.90
13898;DHT22;7019;50.766;4.474;2023-02-28T00:22:55;-0.10;99.90
13898;DHT22;7019;50.766;4.474;2023-02-28T00:25:24;0.00;99.90
13898;DHT22;7019;50.766;4.474;2023-02-28T00:27:52;0.00;99.90
13898;DHT22;7019;50.766;4.474;2023-02-28T00:30:22;0.10;99.90
13898;DHT22;7019;50.766;4.474;2023-02-28T00:32:49;0.10;99.90
13898;DHT22;7019;50.766;4.474;2023-02-28T00:35:17;0.10;99.90
13898;DHT22;7019;50.766;4.474;2023-02-28T00:37:44;0.10;99.90
13898;DHT22;7019;50.766;4.474;2023-02-28T00:40:11;0.00;99.90
13898;DHT22;7019;50.766;4.474;2023-02-28T00:42:39;0.00;99.90
13898;DHT22;7019;50.766;4.474;2023-02-28T00:45:07;0.00;99.90
13898;DHT22;7019;50.766;4.474;2023-02-28T00:47:36;0.00;99.90
13898;DHT22;7019;50.766;4.474;2023-02-28T00:50:04;0.00;99.90
13898;DHT22;7019;50.766;4.474;2023-02-28T00:52:31;-0.10;99.90
13898;DHT22;7019;50.766;4.474;2023-02-28T00:54:58;0.00;99.90
13898;DHT22;7019;50.766;4.474;2023-02-28T00:57:25;0.00;99.90
13898;DHT22;7019;50.766;4.474;2023-02-28T00:59:53;0.00;99.90
13898;DHT22;7019;50.766;4.474;2023-02-28T01:02:21;0.00;99.90
13898;DHT22;7019;50.766;4.474;2023-02-28T01:04:49;-0.10;99.90
13898;DHT22;7019;50.766;4.474;2023-02-28T01:07:16;-0.10;99.90
13898;DHT22;7019;50.766;4.474;2023-02-28T01:09:43;-0.20;99.90
13898;DHT22;7019;50.766;4.474;2023-02-28T01:12:10;-0.20;99.90
13898;DHT22;7019;50.766;4.474;2023-02-28T01:14:38;-0.30;99.90
13898;DHT22;7019;50.766;4.474;2023-02-28T01:17:05;-0.30;99.90
13898;DHT22;7019;50.766;4.474;2023-02-28T01:19:32;-0.40;99.90
13898;DHT22;7019;50.766;4.474;2023-02-28T01:22:02;-0.40;99.90
13898;DHT22;7019;50.766;4.474;2023-02-28T01:24:29;-0.40;99.90
13898;DHT22;7019;50.766;4.474;2023-02-28T01:26:57;-0.40;99.90
13898;DHT22;7019;50.766;4.474;2023-02-28T01:29:24;-0.40;99.90
13898;DHT22;7019;50.766;4.474;2023-02-28T01:31:51;-0.40;99.90
13898;DHT22;7019;50.766;4.474;2023-02-28T01:34:18;-0.50;99.90
13898;DHT22;7019;50.766;4.474;2023-02-28T01:36:46;-0.50;99.90
13898;DHT22;7019;50.766;4.474;2023-02-28T01:39:14;-0.50;99.90
13898;DHT22;7019;50.766;4.474;2023-02-28T01:41:41;-0.60;99.90
13898;DHT22;7019;50.766;4.474;2023-02-28T01:47:09;-0.70;99.90
13898;DHT22;7019;50.766;4.474;2023-02-28T01:49:36;-0.70;99.90
13898;DHT22;7019;50.766;4.474;2023-02-28T01:52:04;-0.60;99.90
13898;DHT22;7019;50.766;4.474;2023-02-28T01:54:34;-0.60;99.90
13898;DHT22;7019;50.766;4.474;2023-02-28T01:57:04;-0.70;99.90
13898;DHT22;7019;50.766;4.474;2023-02-28T01:59:35;-0.70;99.90
13898;DHT22;7019;50.766;4.474;2023-02-28T02:02:04;-0.70;99.90
13898;DHT22;7019;50.766;4.474;2023-02-28T02:04:35;-0.70;99.90
13898;DHT22;7019;50.766;4.474;2023-02-28T02:07:03;-0.70;99.90
13898;DHT22;7019;50.766;4.474;2023-02-28T02:09:32;-0.70;99.90
13898;DHT22;7019;50.766;4.474;2023-02-28T02:12:01;-0.70;99.90
13898;DHT22;7019;50.766;4.474;2023-02-28T02:14:43;-0.70;99.90
13898;DHT22;7019;50.766;4.474;2023-02-28T02:17:23;-0.70;99.90
13898;DHT22;7019;50.766;4.474;2023-02-28T02:20:24;-0.80;99.90
13898;DHT22;7019;50.766;4.474;2023-02-28T02:23:13;-0.80;99.90
13898;DHT22;7019;50.766;4.474;2023-02-28T02:25:49;-0.80;99.90
13898;DHT22;7019;50.766;4.474;2023-02-28T02:31:33;-0.90;99.90
13898;DHT22;7019;50.766;4.474;2023-02-28T02:34:41;-0.90;99.90
13898;DHT22;7019;50.766;4.474;2023-02-28T02:37:19;-1.00;99.90
13898;DHT22;7019;50.766;4.474;2023-02-28T02:40:00;-1.00;99.90
13898;DHT22;7019;50.766;4.474;2023-02-28T02:42:33;-1.00;99.90
13898;DHT22;7019;50.766;4.474;2023-02-28T02:45:07;-1.00;99.90
13898;DHT22;7019;50.766;4.474;2023-02-28T02:47:37;-1.10;99.90
13898;DHT22;7019;50.766;4.474;2023-02-28T02:50:11;-1.10;99.90
13898;DHT22;7019;50.766;4.474;2023-02-28T02:52:42;-1.20;99.90
13898;DHT22;7019;50.766;4.474;2023-02-28T02:55:12;-1.20;99.90
13898;DHT22;7019;50.766;4.474;2023-02-28T02:57:44;-1.20;99.90
13898;DHT22;7019;50.766;4.474;2023-02-28T03:00:14;-1.20;99.90
13898;DHT22;7019;50.766;4.474;2023-02-28T03:02:43;-1.30;99.90
13898;DHT22;7019;50.766;4.474;2023-02-28T03:05:18;-1.20;99.90
13898;DHT22;7019;50.766;4.474;2023-02-28T03:07:46;-1.30;99.90
13898;DHT22;7019;50.766;4.474;2023-02-28T03:10:36;-1.30;99.90
13898;DHT22;7019;50.766;4.474;2023-02-28T03:16:23;-1.40;99.90
13898;DHT22;7019;50.766;4.474;2023-02-28T03:19:01;-1.40;99.90
13898;DHT22;7019;50.766;4.474;2023-02-28T03:21:35;-1.50;99.90
13898;DHT22;7019;50.766;4.474;2023-02-28T03:24:07;-1.60;99.90
13898;DHT22;7019;50.766;4.474;2023-02-28T03:26:40;-1.70;99.90
13898;DHT22;7019;50.766;4.474;2023-02-28T03:29:15;-1.70;99.90
13898;DHT22;7019;50.766;4.474;2023-02-28T03:31:46;-1.70;99.90
13898;DHT22;7019;50.766;4.474;2023-02-28T03:34:19;-1.70;99.90
13898;DHT22;7019;50.766;4.474;2023-02-28T03:36:53;-1.80;99.90
13898;DHT22;7019;50.766;4.474;2023-02-28T03:39:28;-1.80;99.90
13898;DHT22;7019;50.766;4.474;2023-02-28T03:41:58;-1.80;99.90
13898;DHT22;7019;50.766;4.474;2023-02-28T03:44:29;-1.80;99.90
13898;DHT22;7019;50.766;4.474;2023-02-28T03:46:59;-1.80;99.90
13898;DHT22;7019;50.766;4.474;2023-02-28T03:49:31;-1.80;99.90
13898;DHT22;7019;50.766;4.474;2023-02-28T03:52:03;-1.90;99.90
13898;DHT22;7019;50.766;4.474;2023-02-28T03:54:35;-1.80;99.90
13898;DHT22;7019;50.766;4.474;2023-02-28T03:57:07;-1.80;99.90
13898;DHT22;7019;50.766;4.474;2023-02-28T03:59:39;-1.90;99.90
13898;DHT22;7019;50.766;4.474;2023-02-28T04:02:08;-1.90;99.90
13898;DHT22;7019;50.766;4.474;2023-02-28T04:04:35;-1.90;99.90
13898;DHT22;7019;50.766;4.474;2023-02-28T04:07:06;-1.90;99.90
13898;DHT22;7019;50.766;4.474;2023-02-28T04:09:33;-2.00;99.90
13898;DHT22;7019;50.766;4.474;2023-02-28T04:12:01;-2.00;99.90
13898;DHT22;7019;50.766;4.474;2023-02-28T04:14:28;-2.10;99.90
13898;DHT22;7019;50.766;4.474;2023-02-28T04:16:55;-2.10;99.90
13898;DHT22;7019;50.766;4.474;2023-02-28T04:19:22;-2.10;99.90
13898;DHT22;7019;50.766;4.474;2023-02-28T04:21:50;-2.20;99.90
13898;DHT22;7019;50.766;4.474;2023-02-28T04:24:20;-2.20;99.90
13898;DHT22;7019;50.766;4.474;2023-02-28T04:26:49;-2.20;99.90
13898;DHT22;7019;50.766;4.474;2023-02-28T04:29:19;-2.30;99.90
13898;DHT22;7019;50.766;4.474;2023-02-28T04:31:47;-2.30;99.90
13898;DHT22;7019;50.766;4.474;2023-02-28T04:34:14;-2.30;99.90
13898;DHT22;7019;50.766;4.474;2023-02-28T04:36:41;-2.30;99.90
13898;DHT22;7019;50.766;4.474;2023-02-28T04:39:08;-2.30;99.90
13898;DHT22;7019;50.766;4.474;2023-02-28T04:41:37;-2.30;99.90
13898;DHT22;7019;50.766;4.474;2023-02-28T04:44:04;-2.30;99.90
13898;DHT22;7019;50.766;4.474;2023-02-28T04:46:32;-2.30;99.90
13898;DHT22;7019;50.766;4.474;2023-02-28T04:48:59;-2.20;99.90
13898;DHT22;7019;50.766;4.474;2023-02-28T04:51:26;-2.30;99.90
13898;DHT22;7019;50.766;4.474;2023-02-28T04:53:53;-2.20;99.90
13898;DHT22;7019;50.766;4.474;2023-02-28T04:56:20;-2.20;99.90
13898;DHT22;7019;50.766;4.474;2023-02-28T04:58:49;-2.10;99.90
13898;DHT22;7019;50.766;4.474;2023-02-28T05:01:21;-2.20;99.90
13898;DHT22;7019;50.766;4.474;2023-02-28T05:03:49;-2.10;99.90
13898;DHT22;7019;50.766;4.474;2023-02-28T05:06:18;-2.10;99.90
13898;DHT22;7019;50.766;4.474;2023-02-28T05:08:46;-2.00;99.90
13898;DHT22;7019;50.766;4.474;2023-02-28T05:11:16;-2.00;99.90
13898;DHT22;7019;50.766;4.474;2023-02-28T05:13:44;-2.00;99.90
13898;DHT22;7019;50.766;4.474;2023-02-28T05:16:12;-2.00;99.90
13898;DHT22;7019;50.766;4.474;2023-02-28T05:18:40;-2.00;99.90
13898;DHT22;7019;50.766;4.474;2023-02-28T05:21:26;-2.10;99.90
13898;DHT22;7019;50.766;4.474;2023-02-28T05:23:54;-2.10;99.90
13898;DHT22;7019;50.766;4.474;2023-02-28T05:26:21;-2.10;99.90
13898;DHT22;7019;50.766;4.474;2023-02-28T05:28:48;-2.10;99.90
13898;DHT22;7019;50.766;4.474;2023-02-28T05:31:17;-2.00;99.90
13898;DHT22;7019;50.766;4.474;2023-02-28T05:33:44;-2.00;99.90
13898;DHT22;7019;50.766;4.474;2023-02-28T05:36:11;-2.00;99.90
13898;DHT22;7019;50.766;4.474;2023-02-28T05:38:38;-2.10;99.90
13898;DHT22;7019;50.766;4.474;2023-02-28T05:41:06;-2.00;99.90
13898;DHT22;7019;50.766;4.474;2023-02-28T05:43:34;-2.00;99.90
13898;DHT22;7019;50.766;4.474;2023-02-28T05:46:03;-1.80;99.90
13898;DHT22;7019;50.766;4.474;2023-02-28T05:48:32;-1.80;99.90
13898;DHT22;7019;50.766;4.474;2023-02-28T05:51:00;-1.80;99.90
13898;DHT22;7019;50.766;4.474;2023-02-28T05:53:28;-1.80;99.90
13898;DHT22;7019;50.766;4.474;2023-02-28T05:55:55;-1.70;99.90
13898;DHT22;7019;50.766;4.474;2023-02-28T05:58:23;-1.60;99.90
13898;DHT22;7019;50.766;4.474;2023-02-28T06:00:51;-1.60;99.90
13898;DHT22;7019;50.766;4.474;2023-02-28T06:03:18;-1.40;99.90
13898;DHT22;7019;50.766;4.474;2023-02-28T06:05:46;-1.40;99.90
13898;DHT22;7019;50.766;4.474;2023-02-28T06:08:13;-1.40;99.90
13898;DHT22;7019;50.766;4.474;2023-02-28T06:10:40;-1.40;99.90
13898;DHT22;7019;50.766;4.474;2023-02-28T06:13:08;-1.30;99.90
13898;DHT22;7019;50.766;4.474;2023-02-28T06:15:35;-1.30;99.90
13898;DHT22;7019;50.766;4.474;2023-02-28T06:18:02;-1.30;99.90
13898;DHT22;7019;50.766;4.474;2023-02-28T06:20:30;-1.40;99.90
13898;DHT22;7019;50.766;4.474;2023-02-28T06:22:58;-1.40;99.90
13898;DHT22;7019;50.766;4.474;2023-02-28T06:25:25;-1.50;99.90
13898;DHT22;7019;50.766;4.474;2023-02-28T06:27:53;-1.60;99.90
13898;DHT22;7019;50.766;4.474;2023-02-28T06:30:20;-1.60;99.90
13898;DHT22;7019;50.766;4.474;2023-02-28T06:32:50;-1.60;99.90
13898;DHT22;7019;50.766;4.474;2023-02-28T06:35:17;-1.60;99.90
13898;DHT22;7019;50.766;4.474;2023-02-28T06:37:44;-1.60;99.90
13898;DHT22;7019;50.766;4.474;2023-02-28T06:40:14;-1.60;99.90
13898;DHT22;7019;50.766;4.474;2023-02-28T06:42:41;-1.60;99.90
13898;DHT22;7019;50.766;4.474;2023-02-28T06:45:10;-1.60;99.90
13898;DHT22;7019;50.766;4.474;2023-02-28T06:47:39;-1.50;99.90
13898;DHT22;7019;50.766;4.474;2023-02-28T06:50:07;-1.50;99.90
13898;DHT22;7019;50.766;4.474;2023-02-28T06:52:34;-1.50;99.90
13898;DHT22;7019;50.766;4.474;2023-02-28T06:55:03;-1.50;99.90
13898;DHT22;7019;50.766;4.474;2023-02-28T06:57:33;-1.50;99.90
13898;DHT22;7019;50.766;4.474;2023-02-28T07:00:04;-1.40;99.90
13898;DHT22;7019;50.766;4.474;2023-02-28T07:02:33;-1.40;99.90
13898;DHT22;7019;50.766;4.474;2023-02-28T07:05:00;-1.30;99.90
13898;DHT22;7019;50.766;4.474;2023-02-28T07:07:27;-1.30;99.90
13898;DHT22;7019;50.766;4.474;2023-02-28T07:09:54;-1.20;99.90
13898;DHT22;7019;50.766;4.474;2023-02-28T07:12:22;-1.20;99.90
13898;DHT22;7019;50.766;4.474;2023-02-28T07:14:50;-1.20;99.90
13898;DHT22;7019;50.766;4.474;2023-02-28T07:17:17;-1.10;99.90
13898;DHT22;7019;50.766;4.474;2023-02-28T07:19:44;-1.10;99.90
13898;DHT22;7019;50.766;4.474;2023-02-28T07:22:11;-1.10;99.90
13898;DHT22;7019;50.766;4.474;2023-02-28T07:24:38;-0.80;99.90
13898;DHT22;7019;50.766;4.474;2023-02-28T07:27:05;-0.40;99.90
13898;DHT22;7019;50.766;4.474;2023-02-28T07:29:32;-0.10;99.90
13898;DHT22;7019;50.766;4.474;2023-02-28T07:32:01;0.10;99.90
13898;DHT22;7019;50.766;4.474;2023-02-28T07:34:28;0.10;99.90
13898;DHT22;7019;50.766;4.474;2023-02-28T07:36:55;0.30;99.90
13898;DHT22;7019;50.766;4.474;2023-02-28T07:39:22;0.40;99.90
13898;DHT22;7019;50.766;4.474;2023-02-28T07:41:49;0.50;99.90
13898;DHT22;7019;50.766;4.474;2023-02-28T07:44:17;0.50;99.90
13898;DHT22;7019;50.766;4.474;2023-02-28T07:46:45;0.50;99.90
13898;DHT22;7019;50.766;4.474;2023-02-28T07:49:13;0.50;99.90
13898;DHT22;7019;50.766;4.474;2023-02-28T07:51:40;0.40;99.90
13898;DHT22;7019;50.766;4.474;2023-02-28T07:54:07;0.40;99.90
13898;DHT22;7019;50.766;4.474;2023-02-28T07:56:34;0.50;99.90
13898;DHT22;7019;50.766;4.474;2023-02-28T07:59:02;0.50;99.90
13898;DHT22;7019;50.766;4.474;2023-02-28T08:01:29;0.50;99.90
13898;DHT22;7019;50.766;4.474;2023-02-28T08:03:56;0.50;99.90
13898;DHT22;7019;50.766;4.474;2023-02-28T08:06:25;0.60;99.90
13898;DHT22;7019;50.766;4.474;2023-02-28T08:08:53;0.70;99.90
13898;DHT22;7019;50.766;4.474;2023-02-28T08:11:21;0.80;99.90
13898;DHT22;7019;50.766;4.474;2023-02-28T08:13:49;0.90;99.90
13898;DHT22;7019;50.766;4.474;2023-02-28T08:16:16;0.90;99.90
13898;DHT22;7019;50.766;4.474;2023-02-28T08:18:48;1.00;99.90
13898;DHT22;7019;50.766;4.474;2023-02-28T08:21:15;1.10;99.90
13898;DHT22;7019;50.766;4.474;2023-02-28T08:23:45;1.30;99.90
13898;DHT22;7019;50.766;4.474;2023-02-28T08:26:12;1.40;99.90
13898;DHT22;7019;50.766;4.474;2023-02-28T08:28:40;1.50;99.90
13898;DHT22;7019;50.766;4.474;2023-02-28T08:31:08;1.50;99.90
13898;DHT22;7019;50.766;4.474;2023-02-28T08:33:36;1.50;99.90
13898;DHT22;7019;50.766;4.474;2023-02-28T08:36:05;1.50;99.90
13898;DHT22;7019;50.766;4.474;2023-02-28T08:38:32;1.40;99.90
13898;DHT22;7019;50.766;4.474;2023-02-28T08:41:03;1.30;99.90
13898;DHT22;7019;50.766;4.474;2023-02-28T08:43:31;1.30;99.90
13898;DHT22;7019;50.766;4.474;2023-02-28T08:45:58;1.30;99.90
13898;DHT22;7019;50.766;4.474;2023-02-28T08:48:26;1.20;99.90
13898;DHT22;7019;50.766;4.474;2023-02-28T08:50:57;1.30;99.90
13898;DHT22;7019;50.766;4.474;2023-02-28T08:53:25;1.30;99.90
13898;DHT22;7019;50.766;4.474;2023-02-28T08:55:58;1.30;99.90
13898;DHT22;7019;50.766;4.474;2023-02-28T08:58:27;1.20;99.90
13898;DHT22;7019;50.766;4.474;2023-02-28T09:00:55;1.30;99.90
13898;DHT22;7019;50.766;4.474;2023-02-28T09:03:23;1.30;99.90
13898;DHT22;7019;50.766;4.474;2023-02-28T09:05:57;1.30;99.90
13898;DHT22;7019;50.766;4.474;2023-02-28T09:08:26;1.30;99.90
13898;DHT22;7019;50.766;4.474;2023-02-28T09:10:53;1.30;99.90
13898;DHT22;7019;50.766;4.474;2023-02-28T09:13:23;1.30;99.90
13898;DHT22;7019;50.766;4.474;2023-02-28T09:15:53;1.30;99.90
13898;DHT22;7019;50.766;4.474;2023-02-28T09:18:20;1.30;99.90
13898;DHT22;7019;50.766;4.474;2023-02-28T09:20:47;1.30;99.90
13898;DHT22;7019;50.766;4.474;2023-02-28T09:23:16;1.50;99.90
13898;DHT22;7019;50.766;4.474;2023-02-28T09:25:48;1.40;99.90
13898;DHT22;7019;50.766;4.474;2023-02-28T09:28:15;1.50;99.90
13898;DHT22;7019;50.766;4.474;2023-02-28T09:30:44;1.40;99.90
13898;DHT22;7019;50.766;4.474;2023-02-28T09:33:13;1.40;99.90
13898;DHT22;7019;50.766;4.474;2023-02-28T09:35:41;1.50;99.90
13898;DHT22;7019;50.766;4.474;2023-02-28T09:38:09;1.60;99.90
13898;DHT22;7019;50.766;4.474;2023-02-28T09:40:39;1.70;99.90
13898;DHT22;7019;50.766;4.474;2023-02-28T09:43:11;1.80;99.90
13898;DHT22;7019;50.766;4.474;2023-02-28T09:45:42;1.90;99.90
13898;DHT22;7019;50.766;4.474;2023-02-28T09:48:14;1.90;99.90
13898;DHT22;7019;50.766;4.474;2023-02-28T09:50:46;2.00;99.90
13898;DHT22;7019;50.766;4.474;2023-02-28T09:53:20;2.10;99.90
13898;DHT22;7019;50.766;4.474;2023-02-28T09:55:51;2.20;99.90
13898;DHT22;7019;50.766;4.474;2023-02-28T09:58:23;2.30;99.90
13898;DHT22;7019;50.766;4.474;2023-02-28T10:01:00;2.40;99.90
13898;DHT22;7019;50.766;4.474;2023-02-28T10:03:36;2.40;99.90
13898;DHT22;7019;50.766;4.474;2023-02-28T10:06:11;2.50;99.90
13898;DHT22;7019;50.766;4.474;2023-02-28T10:08:45;2.60;99.90
13898;DHT22;7019;50.766;4.474;2023-02-28T10:11:18;2.70;99.90
13898;DHT22;7019;50.766;4.474;2023-02-28T10:13:54;2.70;99.20
13898;DHT22;7019;50.766;4.474;2023-02-28T10:16:31;2.80;98.00
13898;DHT22;7019;50.766;4.474;2023-02-28T10:19:04;2.90;97.60
13898;DHT22;7019;50.766;4.474;2023-02-28T10:21:36;2.90;97.80
13898;DHT22;7019;50.766;4.474;2023-02-28T10:24:11;2.90;99.40
13898;DHT22;7019;50.766;4.474;2023-02-28T10:26:43;3.00;97.70
13898;DHT22;7019;50.766;4.474;2023-02-28T10:29:12;3.10;97.30
13898;DHT22;7019;50.766;4.474;2023-02-28T10:31:39;3.20;97.90
13898;DHT22;7019;50.766;4.474;2023-02-28T10:34:12;3.30;98.50
13898;DHT22;7019;50.766;4.474;2023-02-28T10:36:40;3.40;97.00
13898;DHT22;7019;50.766;4.474;2023-02-28T10:39:33;3.50;96.70
13898;DHT22;7019;50.766;4.474;2023-02-28T10:42:01;3.50;97.20
13898;DHT22;7019;50.766;4.474;2023-02-28T10:44:28;3.40;97.50
13898;DHT22;7019;50.766;4.474;2023-02-28T10:46:55;3.40;96.90
13898;DHT22;7019;50.766;4.474;2023-02-28T10:49:26;3.50;97.80
13898;DHT22;7019;50.766;4.474;2023-02-28T10:51:56;3.50;97.10
13898;DHT22;7019;50.766;4.474;2023-02-28T10:54:30;3.50;95.70
13898;DHT22;7019;50.766;4.474;2023-02-28T10:57:07;3.50;96.40
13898;DHT22;7019;50.766;4.474;2023-02-28T10:59:35;3.40;97.00
13898;DHT22;7019;50.766;4.474;2023-02-28T11:02:08;3.50;96.20
13898;DHT22;7019;50.766;4.474;2023-02-28T11:04:55;3.30;97.00
13898;DHT22;7019;50.766;4.474;2023-02-28T11:07:23;3.50;96.40
13898;DHT22;7019;50.766;4.474;2023-02-28T11:09:53;3.70;95.60
13898;DHT22;7019;50.766;4.474;2023-02-28T11:12:22;3.60;95.90
13898;DHT22;7019;50.766;4.474;2023-02-28T11:14:51;3.50;95.80
13898;DHT22;7019;50.766;4.474;2023-02-28T11:17:21;3.60;94.90
13898;DHT22;7019;50.766;4.474;2023-02-28T11:19:52;3.60;95.10
13898;DHT22;7019;50.766;4.474;2023-02-28T11:22:23;3.60;94.90
13898;DHT22;7019;50.766;4.474;2023-02-28T11:24:56;3.70;95.60
13898;DHT22;7019;50.766;4.474;2023-02-28T11:27:40;3.70;95.10
13898;DHT22;7019;50.766;4.474;2023-02-28T11:30:24;3.70;95.40
13898;DHT22;7019;50.766;4.474;2023-02-28T11:32:51;3.90;95.50
13898;DHT22;7019;50.766;4.474;2023-02-28T11:35:24;3.90;95.60
13898;DHT22;7019;50.766;4.474;2023-02-28T11:37:54;3.60;95.80
13898;DHT22;7019;50.766;4.474;2023-02-28T11:40:28;3.50;95.60
13898;DHT22;7019;50.766;4.474;2023-02-28T11:43:17;3.40;95.20
13898;DHT22;7019;50.766;4.474;2023-02-28T11:45:59;3.50;95.70
13898;DHT22;7019;50.766;4.474;2023-02-28T11:48:33;3.90;95.60
13898;DHT22;7019;50.766;4.474;2023-02-28T11:51:11;4.20;95.00
13898;DHT22;7019;50.766;4.474;2023-02-28T11:53:57;4.40;94.80
13898;DHT22;7019;50.766;4.474;2023-02-28T11:56:31;4.60;94.70
13898;DHT22;7019;50.766;4.474;2023-02-28T11:59:10;4.70;94.00
13898;DHT22;7019;50.766;4.474;2023-02-28T12:01:47;4.40;93.40
13898;DHT22;7019;50.766;4.474;2023-02-28T12:04:25;4.30;94.30
13898;DHT22;7019;50.766;4.474;2023-02-28T12:07:00;4.20;94.30
13898;DHT22;7019;50.766;4.474;2023-02-28T12:09:43;4.00;94.80
13898;DHT22;7019;50.766;4.474;2023-02-28T12:12:23;3.90;93.50
13898;DHT22;7019;50.766;4.474;2023-02-28T12:15:13;4.10;94.80
13898;DHT22;7019;50.766;4.474;2023-02-28T12:17:53;4.40;94.30
13898;DHT22;7019;50.766;4.474;2023-02-28T12:20:28;4.50;93.10
13898;DHT22;7019;50.766;4.474;2023-02-28T12:23:22;4.30;93.10
13898;DHT22;7019;50.766;4.474;2023-02-28T12:26:01;4.40;93.40
13898;DHT22;7019;50.766;4.474;2023-02-28T12:28:31;4.60;93.50
13898;DHT22;7019;50.766;4.474;2023-02-28T12:31:03;4.60;94.00
13898;DHT22;7019;50.766;4.474;2023-02-28T12:33:35;4.30;93.10
13898;DHT22;7019;50.766;4.474;2023-02-28T12:36:07;4.20;93.90
13898;DHT22;7019;50.766;4.474;2023-02-28T12:38:39;4.20;93.00
13898;DHT22;7019;50.766;4.474;2023-02-28T12:41:13;4.10;94.30
13898;DHT22;7019;50.766;4.474;2023-02-28T12:43:43;4.10;94.80
13898;DHT22;7019;50.766;4.474;2023-02-28T12:46:14;4.10;94.50
13898;DHT22;7019;50.766;4.474;2023-02-28T12:48:46;4.10;93.70
13898;DHT22;7019;50.766;4.474;2023-02-28T12:51:15;4.10;94.80
13898;DHT22;7019;50.766;4.474;2023-02-28T12:53:53;4.10;93.30
13898;DHT22;7019;50.766;4.474;2023-02-28T12:56:32;4.00;92.90
13898;DHT22;7019;50.766;4.474;2023-02-28T12:59:04;4.00;93.60
13898;DHT22;7019;50.766;4.474;2023-02-28T13:01:47;4.00;93.30
13898;DHT22;7019;50.766;4.474;2023-02-28T13:07:29;4.00;94.40
13898;DHT22;7019;50.766;4.474;2023-02-28T13:10:00;3.90;93.00
13898;DHT22;7019;50.766;4.474;2023-02-28T13:12:30;4.00;92.70
13898;DHT22;7019;50.766;4.474;2023-02-28T13:15:08;4.00;92.50
13898;DHT22;7019;50.766;4.474;2023-02-28T13:17:48;4.00;93.30
13898;DHT22;7019;50.766;4.474;2023-02-28T13:20:17;4.00;92.40
13898;DHT22;7019;50.766;4.474;2023-02-28T13:22:46;4.10;93.70
13898;DHT22;7019;50.766;4.474;2023-02-28T13:34:21;4.10;92.90
13898;DHT22;7019;50.766;4.474;2023-02-28T13:36:48;4.20;92.40
13898;DHT22;7019;50.766;4.474;2023-02-28T13:39:46;4.20;93.60
13898;DHT22;7019;50.766;4.474;2023-02-28T13:42:32;4.30;92.80
13898;DHT22;7019;50.766;4.474;2023-02-28T13:45:23;4.30;91.50
13898;DHT22;7019;50.766;4.474;2023-02-28T13:47:59;4.30;92.60
13898;DHT22;7019;50.766;4.474;2023-02-28T13:50:31;4.30;92.10
13898;DHT22;7019;50.766;4.474;2023-02-28T13:53:34;4.30;92.80
13898;DHT22;7019;50.766;4.474;2023-02-28T13:56:09;4.30;92.50
13898;DHT22;7019;50.766;4.474;2023-02-28T13:58:46;4.30;93.70
13898;DHT22;7019;50.766;4.474;2023-02-28T14:01:25;4.30;91.40
13898;DHT22;7019;50.766;4.474;2023-02-28T14:04:11;4.40;92.50
13898;DHT22;7019;50.766;4.474;2023-02-28T14:06:47;4.30;92.20
13898;DHT22;7019;50.766;4.474;2023-02-28T14:09:23;4.30;92.10
13898;DHT22;7019;50.766;4.474;2023-02-28T14:11:51;4.30;92.40
13898;DHT22;7019;50.766;4.474;2023-02-28T14:14:53;4.30;91.50
13898;DHT22;7019;50.766;4.474;2023-02-28T14:17:21;4.30;92.10
13898;DHT22;7019;50.766;4.474;2023-02-28T14:19:50;4.20;91.80
13898;DHT22;7019;50.766;4.474;2023-02-28T14:22:39;4.20;93.60
13898;DHT22;7019;50.766;4.474;2023-02-28T14:25:18;4.20;92.60
13898;DHT22;7019;50.766;4.474;2023-02-28T14:27:52;4.20;93.10
13898;DHT22;7019;50.766;4.474;2023-02-28T14:30:43;4.30;92.40
13898;DHT22;7019;50.766;4.474;2023-02-28T14:33:22;4.30;91.70
13898;DHT22;7019;50.766;4.474;2023-02-28T14:36:07;4.30;91.60
13898;DHT22;7019;50.766;4.474;2023-02-28T14:38:37;4.30;92.00
13898;DHT22;7019;50.766;4.474;2023-02-28T14:41:16;4.30;92.50
13898;DHT22;7019;50.766;4.474;2023-02-28T14:43:50;4.30;92.00
13898;DHT22;7019;50.766;4.474;2023-02-28T14:46:18;4.30;91.80
13898;DHT22;7019;50.766;4.474;2023-02-28T14:48:46;4.30;92.10
13898;DHT22;7019;50.766;4.474;2023-02-28T14:51:20;4.20;92.10
13898;DHT22;7019;50.766;4.474;2023-02-28T14:53:50;4.20;92.70
13898;DHT22;7019;50.766;4.474;2023-02-28T14:56:21;4.20;92.40
13898;DHT22;7019;50.766;4.474;2023-02-28T14:58:53;4.20;91.50
13898;DHT22;7019;50.766;4.474;2023-02-28T15:01:23;4.10;92.30
13898;DHT22;7019;50.766;4.474;2023-02-28T15:03:57;4.10;92.30
13898;DHT22;7019;50.766;4.474;2023-02-28T15:06:26;4.10;92.50
13898;DHT22;7019;50.766;4.474;2023-02-28T15:09:11;4.10;92.90
13898;DHT22;7019;50.766;4.474;2023-02-28T15:11:40;4.10;92.80
13898;DHT22;7019;50.766;4.474;2023-02-28T15:14:15;4.10;91.90
13898;DHT22;7019;50.766;4.474;2023-02-28T15:16:47;4.20;92.50
13898;DHT22;7019;50.766;4.474;2023-02-28T15:19:21;4.10;92.90
13898;DHT22;7019;50.766;4.474;2023-02-28T15:21:54;4.10;92.20
13898;DHT22;7019;50.766;4.474;2023-02-28T15:24:35;4.10;92.10
13898;DHT22;7019;50.766;4.474;2023-02-28T15:27:05;4.10;93.30
13898;DHT22;7019;50.766;4.474;2023-02-28T15:29:42;4.00;93.30
13898;DHT22;7019;50.766;4.474;2023-02-28T15:32:24;4.10;93.10
13898;DHT22;7019;50.766;4.474;2023-02-28T15:34:52;4.10;92.40
13898;DHT22;7019;50.766;4.474;2023-02-28T15:37:39;4.10;93.30
13898;DHT22;7019;50.766;4.474;2023-02-28T15:40:13;4.10;92.90
13898;DHT22;7019;50.766;4.474;2023-02-28T15:42:41;4.10;92.90
13898;DHT22;7019;50.766;4.474;2023-02-28T15:45:28;4.20;92.90
13898;DHT22;7019;50.766;4.474;2023-02-28T15:47:55;4.10;92.60
13898;DHT22;7019;50.766;4.474;2023-02-28T15:50:22;4.10;93.20
13898;DHT22;7019;50.766;4.474;2023-02-28T15:52:51;4.20;93.00
13898;DHT22;7019;50.766;4.474;2023-02-28T15:55:20;4.20;92.80
13898;DHT22;7019;50.766;4.474;2023-02-28T15:57:50;4.10;93.20
13898;DHT22;7019;50.766;4.474;2023-02-28T16:00:21;4.10;93.10
13898;DHT22;7019;50.766;4.474;2023-02-28T16:02:48;4.10;93.10
13898;DHT22;7019;50.766;4.474;2023-02-28T16:05:22;4.10;92.90
13898;DHT22;7019;50.766;4.474;2023-02-28T16:07:56;4.00;94.30
13898;DHT22;7019;50.766;4.474;2023-02-28T16:10:25;4.00;94.20
13898;DHT22;7019;50.766;4.474;2023-02-28T16:12:54;4.00;94.00
13898;DHT22;7019;50.766;4.474;2023-02-28T16:15:23;4.00;93.80
13898;DHT22;7019;50.766;4.474;2023-02-28T16:17:52;3.90;95.00
13898;DHT22;7019;50.766;4.474;2023-02-28T16:20:21;3.90;94.80
13898;DHT22;7019;50.766;4.474;2023-02-28T16:22:49;3.90;94.60
13898;DHT22;7019;50.766;4.474;2023-02-28T16:25:19;3.90;95.00
13898;DHT22;7019;50.766;4.474;2023-02-28T16:27:48;3.90;94.50
13898;DHT22;7019;50.766;4.474;2023-02-28T16:30:20;3.90;95.20
13898;DHT22;7019;50.766;4.474;2023-02-28T16:32:49;3.80;94.70
13898;DHT22;7019;50.766;4.474;2023-02-28T16:35:16;3.70;95.80
13898;DHT22;7019;50.766;4.474;2023-02-28T16:37:44;3.70;95.70
13898;DHT22;7019;50.766;4.474;2023-02-28T16:40:14;3.60;95.60
13898;DHT22;7019;50.766;4.474;2023-02-28T16:42:45;3.70;95.00